Terminal Aerodrome Forecast
Issued by NWS Duluth, MN

Home | Current Version | Previous Version | Text Only | Print | Product List | Glossary On
Versions: 1 2 3 4 5 6 7 8 9 10 11 12 13 14 15 16 17 18 19 20 21 22 23 24 25 26
112
FTUS43 KDLH 231727
TAFDLH
TAF
KDLH 231727Z 2318/2418 10012KT 3SM -SN BR BKN007 OVC012
     FM232100 09013KT P6SM VCSH SCT018 BKN040
     FM240200 09010KT P6SM SCT050 BKN100
     FM240600 10015G25KT P6SM BKN030
     FM240800 11018G25KT 5SM BR SCT012 BKN018 OVC025
     FM241400 12016G25KT P6SM SCT020 BKN150=

USA.gov is the U.S. government's official web portal to all federal, state and local government web resources and services.